createdAt,value
2023-11-18T00:02:02.962Z,99875.38
2023-11-18T00:06:06.862Z,99887.50
2023-11-18T00:10:11.193Z,99885.78
2023-11-18T00:14:14.759Z,99903.09
2023-11-18T00:18:20.401Z,99897.03
2023-11-18T00:22:23.639Z,99907.44
2023-11-18T00:26:27.302Z,99908.28
2023-11-18T00:30:30.653Z,99910.88
2023-11-18T00:34:35.596Z,99916.16
2023-11-18T00:38:39.128Z,99913.56
2023-11-18T00:42:44.401Z,99923.97
2023-11-18T00:46:47.635Z,99918.75
2023-11-18T00:50:53.162Z,99926.56
2023-11-18T00:54:55.966Z,99927.41
2023-11-18T00:58:59.191Z,99938.59
2023-11-18T01:03:02.333Z,99924.03
2023-11-18T01:07:06.760Z,99934.28
2023-11-18T01:11:10.397Z,99934.38
2023-11-18T01:15:13.775Z,99932.72
2023-11-18T01:19:17.015Z,99934.44
2023-11-18T01:23:22.124Z,99938.78
2023-11-18T01:27:25.577Z,99932.66
2023-11-18T01:31:34.390Z,99934.38
2023-11-18T01:35:45.155Z,99925.66
2023-11-18T01:39:49.735Z,99924.84
2023-11-18T01:43:54.922Z,99922.22
2023-11-18T01:47:58.140Z,99914.44
2023-11-18T01:52:02.935Z,99914.47
2023-11-18T01:56:10.111Z,99917.06
2023-11-18T02:00:14.810Z,99919.81
2023-11-18T02:04:21.528Z,99919.75
2023-11-18T02:08:26.033Z,99922.47
2023-11-18T02:12:38.073Z,99937.16
2023-11-18T02:16:43.465Z,99933.59
2023-11-18T02:20:48.829Z,99933.66
2023-11-18T02:24:51.953Z,99946.66
2023-11-18T02:28:56.750Z,99936.25
2023-11-18T02:33:07.058Z,99942.22
2023-11-18T02:37:12.087Z,99942.28
2023-11-18T02:41:19.998Z,99941.47
2023-11-18T02:45:25.332Z,99949.97
2023-11-18T02:49:29.270Z,99961.28
2023-11-18T02:53:32.635Z,99958.78
2023-11-18T02:57:36.229Z,99955.31
2023-11-18T03:01:41.439Z,99962.16
2023-11-18T03:05:44.724Z,99963.91
2023-11-18T03:09:48.222Z,99976.03
2023-11-18T03:13:51.619Z,99986.38
2023-11-18T03:17:56.344Z,99989.78
2023-11-18T03:21:59.495Z,99989.69
2023-11-18T03:26:02.377Z,99990.53
2023-11-18T03:30:07.721Z,100002.78
2023-11-18T03:34:12.335Z,100001.03
2023-11-18T03:38:15.263Z,100003.72
2023-11-18T03:42:17.986Z,99997.66
2023-11-18T03:46:21.073Z,100003.81
2023-11-18T03:50:25.828Z,100008.03
2023-11-18T03:54:28.802Z,100015.06
2023-11-18T03:58:34.316Z,100019.41
2023-11-18T04:02:37.712Z,100017.66
2023-11-18T04:06:42.291Z,100021.88
2023-11-18T04:10:45.822Z,100021.03
2023-11-18T04:14:48.937Z,100026.34
2023-11-18T04:18:52.211Z,100030.66
2023-11-18T04:22:56.854Z,100030.66
2023-11-18T04:27:00.390Z,100034.97
2023-11-18T04:31:04.543Z,100025.44
2023-11-18T04:35:11.167Z,100035.00
2023-11-18T04:39:17.289Z,100036.72
2023-11-18T04:43:28.409Z,100038.53
2023-11-18T04:47:40.000Z,100037.66
2023-11-18T04:51:43.227Z,100035.94
2023-11-18T04:55:47.625Z,100048.06
2023-11-18T04:59:50.729Z,100054.19
2023-11-18T05:03:53.579Z,100055.06
2023-11-18T05:07:56.610Z,100053.22
2023-11-18T05:12:01.995Z,100053.31
2023-11-18T05:16:05.317Z,100061.22
2023-11-18T05:20:10.503Z,100061.16
2023-11-18T05:24:15.147Z,100066.28
2023-11-18T05:28:21.183Z,100073.25
2023-11-18T05:32:24.601Z,100075.81
2023-11-18T05:36:31.469Z,100083.56
2023-11-18T05:40:37.372Z,100096.53
2023-11-18T05:44:42.854Z,100096.53
2023-11-18T05:48:47.041Z,100107.88
2023-11-18T05:52:50.509Z,100113.03
2023-11-18T05:56:56.249Z,100120.00
2023-11-18T06:01:02.619Z,100128.66
2023-11-18T06:05:07.342Z,100135.59
2023-11-18T06:09:19.218Z,100132.97
2023-11-18T06:13:22.914Z,100128.72
2023-11-18T06:17:29.459Z,100142.50
2023-11-18T06:21:32.805Z,100153.75
2023-11-18T06:25:36.941Z,100158.94
2023-11-18T06:29:40.704Z,100162.41
2023-11-18T06:33:49.195Z,100166.72
2023-11-18T06:37:53.261Z,100173.72
2023-11-18T06:41:56.036Z,100171.00
2023-11-18T06:45:58.740Z,100170.16
2023-11-18T06:50:03.171Z,100184.75
2023-11-18T06:54:10.512Z,100186.41
2023-11-18T06:58:17.372Z,100193.38
2023-11-18T07:02:22.566Z,100200.19
2023-11-18T07:06:28.055Z,100209.66
2023-11-18T07:10:30.980Z,100210.47
2023-11-18T07:14:34.415Z,100219.91
2023-11-18T07:18:38.066Z,100223.25
2023-11-18T07:22:42.774Z,100228.47
2023-11-18T07:26:46.773Z,100235.41
2023-11-18T07:30:50.079Z,100236.50
2023-11-18T07:34:53.107Z,100250.38
2023-11-18T07:39:00.105Z,100254.56
2023-11-18T07:43:04.170Z,100258.78
2023-11-18T07:47:07.618Z,100258.09
2023-11-18T07:51:10.647Z,100254.47
2023-11-18T07:55:15.370Z,100264.84
2023-11-18T07:59:19.444Z,100274.28
2023-11-18T08:03:22.541Z,100277.22
2023-11-18T08:07:25.473Z,100279.63
2023-11-18T08:11:30.810Z,100283.88
2023-11-18T08:15:33.703Z,100295.97
2023-11-18T08:19:37.261Z,100292.53
2023-11-18T08:23:40.173Z,100287.00
2023-11-18T08:27:44.636Z,100288.91
2023-11-18T08:31:48.004Z,100302.63
2023-11-18T08:35:52.150Z,100295.94
2023-11-18T08:39:55.240Z,100314.19
2023-11-18T08:44:10.869Z,100317.75
2023-11-18T08:48:21.733Z,100318.69
2023-11-18T08:52:27.100Z,100322.94
2023-11-18T08:56:36.192Z,100321.94
2023-11-18T09:00:51.642Z,100328.06
2023-11-18T09:04:56.862Z,100337.47
2023-11-18T09:09:03.322Z,100343.81
2023-11-18T09:13:07.279Z,100347.16
2023-11-18T09:17:11.900Z,100340.91
2023-11-18T09:21:17.173Z,100337.56
2023-11-18T09:25:23.511Z,100345.31
2023-11-18T09:29:26.403Z,100349.47
2023-11-18T09:33:34.360Z,100353.81
2023-11-18T09:37:38.002Z,100344.34
2023-11-18T09:41:41.541Z,100351.16
2023-11-18T09:45:49.118Z,100343.19
2023-11-18T09:49:58.411Z,100345.63
2023-11-18T09:54:04.649Z,100349.69
2023-11-18T09:58:14.617Z,100345.19
2023-11-18T10:02:19.976Z,100346.03
2023-11-18T10:06:25.068Z,100349.19
2023-11-18T10:10:38.182Z,100359.59
2023-11-18T10:14:45.520Z,100356.53
2023-11-18T10:18:53.358Z,100362.63
2023-11-18T10:23:12.386Z,100369.72
2023-11-18T10:27:17.589Z,100362.69
2023-11-18T10:31:21.851Z,100366.06
2023-11-18T10:35:25.040Z,100355.59
2023-11-18T10:39:33.731Z,100358.81
2023-11-18T10:43:37.622Z,100363.13
2023-11-18T10:47:45.079Z,100365.03
2023-11-18T10:51:48.814Z,100374.91
2023-11-18T10:55:53.789Z,100376.44
2023-11-18T11:00:04.720Z,100380.97
2023-11-18T11:04:08.146Z,100385.69
2023-11-18T11:08:14.413Z,100393.13
2023-11-18T11:12:20.935Z,100389.31
2023-11-18T11:16:30.451Z,100387.97
2023-11-18T11:20:43.584Z,100400.50
2023-11-18T11:25:03.913Z,100404.72
2023-11-18T11:29:21.510Z,100412.09
2023-11-18T11:33:41.810Z,100425.09
2023-11-18T11:37:48.419Z,100419.19
2023-11-18T11:41:56.008Z,100425.25
2023-11-18T11:46:00.840Z,100438.03
2023-11-18T11:50:11.856Z,100444.00
2023-11-18T11:54:22.259Z,100444.22
2023-11-18T11:58:29.665Z,100441.44
2023-11-18T12:02:34.632Z,100446.53
2023-11-18T12:06:45.656Z,100451.78
2023-11-18T12:10:55.079Z,100456.13
2023-11-18T12:15:07.349Z,100459.66
2023-11-18T12:19:38.474Z,100460.22
2023-11-18T12:24:23.926Z,100465.34
2023-11-18T12:28:32.433Z,100474.28
2023-11-18T12:33:07.095Z,100474.16
2023-11-18T12:37:47.380Z,100485.13
2023-11-18T12:42:07.952Z,100487.94
2023-11-18T12:46:51.167Z,100501.06
2023-11-18T12:50:54.149Z,100509.88
2023-11-18T12:55:00.143Z,100512.59
2023-11-18T12:59:07.730Z,100517.97
2023-11-18T13:03:12.223Z,100515.69
2023-11-18T13:07:15.320Z,100519.97
2023-11-18T13:11:19.782Z,100527.84
2023-11-18T13:15:25.933Z,100532.31
2023-11-18T13:19:29.498Z,100528.09
2023-11-18T13:23:32.836Z,100539.25
2023-11-18T13:27:39.903Z,100540.09
2023-11-18T13:31:42.945Z,100543.69
2023-11-18T13:35:47.791Z,100559.56
2023-11-18T13:39:56.860Z,100557.00
2023-11-18T13:44:02.106Z,100561.44
2023-11-18T13:48:05.587Z,100564.91
2023-11-18T13:52:12.209Z,100571.94
2023-11-18T13:56:16.865Z,100567.72
2023-11-18T14:00:24.578Z,100584.19
2023-11-18T14:04:29.502Z,100578.91
2023-11-18T14:08:35.683Z,100585.00
2023-11-18T14:12:38.615Z,100596.25
2023-11-18T14:16:43.321Z,100602.41
2023-11-18T14:20:48.246Z,100598.06
2023-11-18T14:24:51.269Z,100595.47
2023-11-18T14:28:54.227Z,100599.75
2023-11-18T14:32:58.721Z,100598.91
2023-11-18T14:37:02.349Z,100602.34
2023-11-18T14:41:06.392Z,100607.59
2023-11-18T14:45:10.925Z,100599.00
2023-11-18T14:49:15.884Z,100598.19
2023-11-18T14:53:19.063Z,100596.50
2023-11-18T14:57:22.110Z,100601.66
2023-11-18T15:01:25.257Z,100605.97
2023-11-18T15:05:29.884Z,100603.47
2023-11-18T15:09:33.556Z,100598.28
2023-11-18T15:13:36.592Z,100603.47
2023-11-18T15:17:46.304Z,100599.22
2023-11-18T15:21:53.915Z,100607.03
2023-11-18T15:25:58.193Z,100607.97
2023-11-18T15:30:03.556Z,100606.22
2023-11-18T15:34:06.726Z,100621.75
2023-11-18T15:38:11.670Z,100615.66
2023-11-18T15:42:15.089Z,100621.72
2023-11-18T15:46:19.208Z,100626.84
2023-11-18T15:50:22.378Z,100625.09
2023-11-18T15:54:27.445Z,100638.09
2023-11-18T15:58:30.911Z,100636.34
2023-11-18T16:02:33.978Z,100638.03
2023-11-18T16:06:38.589Z,100638.03
2023-11-18T16:10:44.076Z,100644.09
2023-11-18T16:14:48.625Z,100646.69
2023-11-18T16:18:56.040Z,100639.81
2023-11-18T16:22:59.139Z,100642.38
2023-11-18T16:27:03.929Z,100642.47
2023-11-18T16:31:08.289Z,100649.38
2023-11-18T16:35:13.278Z,100648.47
2023-11-18T16:39:18.915Z,100649.28
2023-11-18T16:43:23.348Z,100644.97
2023-11-18T16:47:26.878Z,100653.63
2023-11-18T16:51:30.005Z,100651.88
2023-11-18T16:55:35.169Z,100654.47
2023-11-18T16:59:39.925Z,100664.00
2023-11-18T17:03:43.001Z,100669.19
2023-11-18T17:07:46.923Z,100673.56
2023-11-18T17:11:50.667Z,100666.66
2023-11-18T17:15:55.176Z,100657.97
2023-11-18T17:19:58.183Z,100651.97
2023-11-18T17:24:01.735Z,100651.06
2023-11-18T17:28:06.203Z,100647.69
2023-11-18T17:32:11.035Z,100634.78
2023-11-18T17:36:14.128Z,100643.44
2023-11-18T17:40:19.409Z,100638.22
2023-11-18T17:44:22.731Z,100643.38
2023-11-18T17:48:27.246Z,100635.59
2023-11-18T17:52:30.275Z,100639.16
2023-11-18T17:56:33.329Z,100641.66
2023-11-18T18:00:37.536Z,100639.91
2023-11-18T18:04:42.216Z,100645.09
2023-11-18T18:08:45.525Z,100646.78
2023-11-18T18:12:49.073Z,100639.00
2023-11-18T18:16:52.051Z,100633.91
2023-11-18T18:20:56.543Z,100632.97
2023-11-18T18:24:59.717Z,100626.94
2023-11-18T18:29:02.697Z,100619.16
2023-11-18T18:33:06.733Z,100629.47
2023-11-18T18:37:11.584Z,100633.81
2023-11-18T18:41:15.364Z,100624.31
2023-11-18T18:45:19.687Z,100637.31
2023-11-18T18:49:22.959Z,100642.50
2023-11-18T18:53:28.119Z,100639.97
2023-11-18T18:57:31.511Z,100640.00
2023-11-18T19:01:34.718Z,100647.81
2023-11-18T19:05:37.833Z,100654.66
2023-11-18T19:09:43.045Z,100655.50
2023-11-18T19:13:46.180Z,100659.81
2023-11-18T19:17:49.102Z,100658.03
2023-11-18T19:21:52.570Z,100656.31
2023-11-18T19:25:57.076Z,100656.34
2023-11-18T19:30:00.597Z,100650.34
2023-11-18T19:34:03.681Z,100639.97
2023-11-18T19:38:08.378Z,100646.03
2023-11-18T19:42:13.399Z,100649.53
2023-11-18T19:46:17.510Z,100640.84
2023-11-18T19:54:26.918Z,100644.28
2023-11-18T19:58:31.322Z,100626.13
2023-11-18T20:02:34.440Z,100618.28
2023-11-18T20:06:37.652Z,100618.28
2023-11-18T20:10:40.637Z,100617.50
2023-11-18T20:14:45.559Z,100601.97
2023-11-18T20:18:49.077Z,100589.91
2023-11-18T20:22:55.806Z,100589.84
2023-11-18T20:27:00.102Z,100592.50
2023-11-18T20:31:05.737Z,100591.63
2023-11-18T20:35:09.962Z,100591.66
2023-11-18T20:39:18.375Z,100587.31
2023-11-18T20:43:21.859Z,100569.19
2023-11-18T20:47:26.688Z,100570.06
2023-11-18T20:51:30.171Z,100569.19
2023-11-18T20:55:33.612Z,100573.53
2023-11-18T20:59:36.919Z,100576.06
2023-11-18T21:03:41.850Z,100569.13
2023-11-18T21:07:45.802Z,100566.53
2023-11-18T21:11:49.157Z,100569.09
2023-11-18T21:15:52.285Z,100560.44
2023-11-18T21:19:57.644Z,100550.06
2023-11-18T21:24:04.274Z,100535.34
2023-11-18T21:28:07.355Z,100540.59
2023-11-18T21:32:12.404Z,100537.19
2023-11-18T21:36:19.115Z,100539.78
2023-11-18T21:40:25.936Z,100542.34
2023-11-18T21:44:29.224Z,100544.97
2023-11-18T21:48:32.366Z,100550.09
2023-11-18T21:52:37.460Z,100549.19
2023-11-18T21:56:42.572Z,100552.66
2023-11-18T22:00:45.951Z,100560.44
2023-11-18T22:04:49.119Z,100572.59
2023-11-18T22:08:53.704Z,100576.06
2023-11-18T22:12:57.990Z,100595.00
2023-11-18T22:17:00.987Z,100587.16
2023-11-18T22:21:04.842Z,100582.78
2023-11-18T22:25:10.042Z,100586.28
2023-11-18T22:29:13.137Z,100597.53
2023-11-18T22:33:25.185Z,100608.78
2023-11-18T22:37:28.560Z,100564.66
2023-11-18T22:41:33.279Z,100555.97
2023-11-18T22:45:38.366Z,100537.84
2023-11-18T22:49:42.017Z,100519.69
2023-11-18T22:53:45.093Z,100504.16
2023-11-18T22:57:49.472Z,100500.75
2023-11-18T23:01:52.679Z,100490.38
2023-11-18T23:05:55.656Z,100493.03
2023-11-18T23:09:59.494Z,100503.41
2023-11-18T23:14:04.857Z,100492.03
2023-11-18T23:18:09.021Z,100481.69
2023-11-18T23:22:12.461Z,100487.72
2023-11-18T23:26:15.597Z,100472.09
2023-11-18T23:30:22.344Z,100469.44
2023-11-18T23:34:30.825Z,100474.69
2023-11-18T23:38:33.757Z,100471.22
2023-11-18T23:42:36.982Z,100464.44
2023-11-18T23:46:41.224Z,100477.34
2023-11-18T23:50:44.293Z,100470.31
2023-11-18T23:54:49.378Z,100473.72
2023-11-18T23:58:52.624Z,100463.41
